Time;durP1;ratioP1;P1;durP2;ratioP2;P2;SDS_P1;SDS_P2;PMS_P1;PMS_P2;Temp;Humidity;BMP_temperature;BMP_pressure;BME280_temperature;BME280_humidity;BME280_pressure;Samples;Min_cycle;Max_cycle;Signal;HPM_P1;HPM_P2
2023/08/12 00:01:56;;;;;;;20.67;16.57;;;;;;;;;;5037806;28;20233;-70
2023/08/12 00:04:22;;;;;;;19.13;16.73;;;;;;;;;;5035608;28;20245;-70
2023/08/12 00:06:48;;;;;;;23.97;17.20;;;;;;;;;;5035752;28;20230;-70
2023/08/12 00:09:15;;;;;;;25.77;18.60;;;;;;;;;;5017898;28;20266;-70
2023/08/12 00:11:41;;;;;;;27.57;19.33;;;;;;;;;;5053676;22;20227;-66
2023/08/12 00:14:07;;;;;;;29.53;18.93;;;;;;;;;;5035495;28;20539;-66
2023/08/12 00:16:33;;;;;;;27.50;18.90;;;;;;;;;;5036222;28;20179;-66
2023/08/12 00:18:59;;;;;;;27.77;18.63;;;;;;;;;;5036023;28;20637;-66
2023/08/12 00:21:26;;;;;;;26.70;18.70;;;;;;;;;;5033869;28;20195;-66
2023/08/12 00:23:52;;;;;;;27.00;19.13;;;;;;;;;;5036595;28;20248;-66
2023/08/12 00:26:17;;;;;;;28.27;20.47;;;;;;;;;;5034077;28;20712;-66
2023/08/12 00:28:43;;;;;;;26.77;19.30;;;;;;;;;;5036046;28;20528;-66
2023/08/12 00:31:09;;;;;;;26.43;19.27;;;;;;;;;;5033884;28;20584;-66
2023/08/12 00:33:35;;;;;;;24.17;18.53;;;;;;;;;;5035154;28;20589;-66
2023/08/12 00:36:01;;;;;;;25.53;18.80;;;;;;;;;;5035273;28;20171;-66
2023/08/12 00:38:28;;;;;;;29.17;19.73;;;;;;;;;;5035049;28;20183;-66
2023/08/12 00:40:54;;;;;;;27.57;18.97;;;;;;;;;;5033801;28;20237;-66
2023/08/12 00:43:20;;;;;;;28.47;20.47;;;;;;;;;;5035046;28;20179;-66
2023/08/12 00:45:46;;;;;;;26.77;19.97;;;;;;;;;;5034979;28;20233;-66
2023/08/12 00:48:13;;;;;;;29.77;20.43;;;;;;;;;;5033555;28;20708;-66
2023/08/12 00:50:39;;;;;;;29.57;20.23;;;;;;;;;;5034873;28;20560;-66
2023/08/12 00:53:08;;;;;;;28.83;20.67;;;;;;;;;;5035490;28;20304;-66
2023/08/12 00:55:35;;;;;;;27.90;21.10;;;;;;;;;;5034634;28;20207;-66
2023/08/12 00:58:02;;;;;;;32.17;22.73;;;;;;;;;;5033486;28;20248;-66
2023/08/12 01:00:28;;;;;;;33.13;24.27;;;;;;;;;;5034602;28;20199;-66
2023/08/12 01:02:54;;;;;;;40.23;26.83;;;;;;;;;;5034680;28;20568;-66
2023/08/12 01:05:20;;;;;;;50.97;31.50;;;;;;;;;;5034736;28;20245;-67
2023/08/12 01:07:46;;;;;;;56.00;34.03;;;;;;;;;;5033230;28;20190;-67
2023/08/12 01:10:16;;;;;;;58.30;35.63;;;;;;;;;;5038076;28;20355;-67
2023/08/12 01:12:47;;;;;;;50.43;34.63;;;;;;;;;;5054517;28;20261;-67
2023/08/12 01:15:21;;;;;;;46.33;29.37;;;;;;;;;;5054173;28;20198;-67
2023/08/12 01:17:51;;;;;;;52.90;33.23;;;;;;;;;;5036321;28;20174;-67
2023/08/12 01:20:24;;;;;;;47.23;33.27;;;;;;;;;;5054552;28;20226;-67
2023/08/12 01:22:52;;;;;;;61.43;35.77;;;;;;;;;;5054702;28;20166;-67
2023/08/12 01:25:18;;;;;;;63.87;36.77;;;;;;;;;;5054387;28;20174;-67
2023/08/12 01:27:44;;;;;;;60.47;35.87;;;;;;;;;;5054177;28;20178;-67
2023/08/12 01:30:10;;;;;;;57.67;37.57;;;;;;;;;;5053791;28;20201;-67
2023/08/12 01:32:40;;;;;;;61.00;37.10;;;;;;;;;;5053543;28;20178;-67
2023/08/12 01:35:10;;;;;;;61.60;37.77;;;;;;;;;;5053336;28;20238;-65
2023/08/12 01:37:36;;;;;;;58.60;38.80;;;;;;;;;;5053951;28;20625;-64
2023/08/12 01:40:04;;;;;;;59.63;38.33;;;;;;;;;;5054033;28;20656;-66
2023/08/12 01:42:30;;;;;;;52.73;34.17;;;;;;;;;;5053802;28;20166;-66
2023/08/12 01:44:57;;;;;;;51.90;34.83;;;;;;;;;;5053957;28;20186;-66
2023/08/12 01:47:23;;;;;;;54.27;36.00;;;;;;;;;;5035758;28;20185;-66
2023/08/12 01:49:49;;;;;;;51.27;35.30;;;;;;;;;;5035782;28;20182;-66
2023/08/12 01:52:15;;;;;;;52.70;35.03;;;;;;;;;;5053696;28;20212;-64
2023/08/12 01:54:41;;;;;;;56.93;37.27;;;;;;;;;;5035560;28;20206;-64
2023/08/12 01:57:08;;;;;;;57.60;37.30;;;;;;;;;;5053642;28;20715;-66
2023/08/12 01:59:35;;;;;;;54.93;36.60;;;;;;;;;;5053581;28;20256;-64
2023/08/12 02:02:01;;;;;;;60.30;37.87;;;;;;;;;;5035362;28;20560;-64
2023/08/12 02:04:27;;;;;;;64.23;39.97;;;;;;;;;;5053303;28;20265;-66
2023/08/12 02:06:54;;;;;;;55.83;36.20;;;;;;;;;;5053525;28;20179;-66
2023/08/12 02:09:20;;;;;;;69.97;38.93;;;;;;;;;;5053306;28;20210;-65
2023/08/12 02:11:46;;;;;;;62.93;38.73;;;;;;;;;;5035292;28;20222;-66
2023/08/12 02:14:12;;;;;;;65.50;38.50;;;;;;;;;;5035138;28;20209;-66
2023/08/12 02:16:38;;;;;;;66.20;37.57;;;;;;;;;;5053565;28;20205;-67
2023/08/12 02:19:04;;;;;;;57.57;36.17;;;;;;;;;;5052992;28;20197;-67
2023/08/12 02:21:30;;;;;;;57.23;36.27;;;;;;;;;;5052971;28;20248;-66
2023/08/12 02:23:56;;;;;;;58.53;36.93;;;;;;;;;;5053043;28;20179;-67
2023/08/12 02:26:22;;;;;;;57.50;35.67;;;;;;;;;;5035017;28;20185;-66
2023/08/12 02:28:48;;;;;;;60.77;37.33;;;;;;;;;;5035105;28;20182;-67
2023/08/12 02:31:15;;;;;;;58.33;37.87;;;;;;;;;;5053082;28;20355;-66
2023/08/12 02:33:41;;;;;;;56.70;37.13;;;;;;;;;;5034920;28;20724;-67
2023/08/12 02:36:07;;;;;;;55.17;36.50;;;;;;;;;;5052863;28;20261;-67
2023/08/12 02:38:33;;;;;;;55.80;36.60;;;;;;;;;;5034945;28;20178;-66
2023/08/12 02:40:59;;;;;;;57.97;36.83;;;;;;;;;;5052607;28;20195;-67
2023/08/12 02:43:25;;;;;;;51.33;35.33;;;;;;;;;;5034916;28;20177;-66
2023/08/12 02:45:51;;;;;;;56.10;36.10;;;;;;;;;;5052578;28;20174;-67
2023/08/12 02:48:17;;;;;;;54.40;35.70;;;;;;;;;;5034846;28;20559;-66
2023/08/12 02:50:43;;;;;;;57.93;36.57;;;;;;;;;;5052582;28;20206;-66
2023/08/12 02:53:09;;;;;;;56.87;37.57;;;;;;;;;;5052971;28;20178;-67
2023/08/12 02:55:37;;;;;;;58.47;38.57;;;;;;;;;;5052853;28;20570;-66
2023/08/12 02:58:03;;;;;;;54.67;37.93;;;;;;;;;;5053209;28;20675;-66
2023/08/12 03:00:29;;;;;;;57.40;38.10;;;;;;;;;;5052940;28;20676;-66
2023/08/12 03:02:55;;;;;;;64.50;38.43;;;;;;;;;;5052712;28;20181;-67
2023/08/12 03:05:22;;;;;;;61.33;39.30;;;;;;;;;;5034484;28;20183;-66
2023/08/12 03:07:47;;;;;;;66.83;38.90;;;;;;;;;;5034596;28;20183;-66
2023/08/12 03:10:13;;;;;;;55.47;36.87;;;;;;;;;;5052379;28;20591;-67
2023/08/12 03:12:39;;;;;;;65.77;44.33;;;;;;;;;;5033241;28;20475;-66
2023/08/12 03:15:06;;;;;;;57.67;38.80;;;;;;;;;;5034409;28;21009;-66
2023/08/12 03:17:32;;;;;;;55.83;38.67;;;;;;;;;;5052368;28;20175;-66
2023/08/12 03:20:04;;;;;;;56.40;39.57;;;;;;;;;;5034533;28;20181;-65
2023/08/12 03:22:30;;;;;;;63.53;38.63;;;;;;;;;;5052714;28;20212;-66
2023/08/12 03:24:56;;;;;;;61.07;38.63;;;;;;;;;;5052670;28;20182;-67
2023/08/12 03:27:22;;;;;;;60.03;38.93;;;;;;;;;;5052376;28;20182;-66
2023/08/12 03:29:48;;;;;;;62.60;39.10;;;;;;;;;;5052614;28;20189;-65
2023/08/12 03:32:14;;;;;;;61.83;39.47;;;;;;;;;;5052262;28;20175;-68
2023/08/12 03:34:40;;;;;;;70.37;40.93;;;;;;;;;;5034250;28;20230;-66
2023/08/12 03:37:06;;;;;;;64.13;41.83;;;;;;;;;;5034331;28;20647;-66
2023/08/12 03:39:32;;;;;;;68.57;42.47;;;;;;;;;;5034222;28;20656;-66
2023/08/12 03:41:58;;;;;;;61.70;40.40;;;;;;;;;;5051981;28;20679;-66
2023/08/12 03:44:24;;;;;;;69.67;42.30;;;;;;;;;;5052308;28;20179;-67
2023/08/12 03:46:50;;;;;;;68.30;42.37;;;;;;;;;;5052040;28;20183;-67
2023/08/12 03:49:16;;;;;;;64.03;42.50;;;;;;;;;;5034251;28;20236;-67
2023/08/12 03:51:42;;;;;;;60.33;39.90;;;;;;;;;;5051910;28;20205;-66
2023/08/12 03:54:08;;;;;;;64.50;42.10;;;;;;;;;;5052002;28;20204;-67
2023/08/12 03:56:33;;;;;;;64.43;43.17;;;;;;;;;;5034795;28;20656;-67
2023/08/12 03:58:59;;;;;;;61.47;41.73;;;;;;;;;;5037759;28;20640;-66
2023/08/12 04:01:25;;;;;;;61.43;41.83;;;;;;;;;;5037552;28;20280;-66
2023/08/12 04:03:51;;;;;;;66.93;42.60;;;;;;;;;;5055537;28;20181;-66
2023/08/12 04:06:17;;;;;;;64.43;42.10;;;;;;;;;;5055604;28;20672;-64
2023/08/12 04:08:43;;;;;;;68.13;41.67;;;;;;;;;;5055335;28;20174;-64
2023/08/12 04:11:09;;;;;;;68.23;43.33;;;;;;;;;;5037490;28;20214;-66
2023/08/12 04:13:35;;;;;;;62.10;42.00;;;;;;;;;;5055929;28;20213;-67
2023/08/12 04:16:01;;;;;;;58.13;40.70;;;;;;;;;;5037664;28;20217;-66
2023/08/12 04:18:27;;;;;;;59.60;37.57;;;;;;;;;;5056033;28;20190;-66
2023/08/12 04:20:54;;;;;;;55.20;38.30;;;;;;;;;;5037990;28;20202;-67
2023/08/12 04:23:20;;;;;;;55.27;36.47;;;;;;;;;;5055829;28;20197;-66
2023/08/12 04:25:47;;;;;;;63.20;36.43;;;;;;;;;;5037129;28;20636;-67
2023/08/12 04:28:13;;;;;;;52.70;34.40;;;;;;;;;;5037281;28;20179;-66
2023/08/12 04:30:46;;;;;;;52.20;34.43;;;;;;;;;;5055478;28;20259;-66
2023/08/12 04:33:13;;;;;;;60.40;37.60;;;;;;;;;;5055207;28;20174;-67
2023/08/12 04:35:39;;;;;;;59.10;36.90;;;;;;;;;;5037338;28;20581;-67
2023/08/12 04:38:05;;;;;;;65.00;38.50;;;;;;;;;;5036970;28;20174;-67
2023/08/12 04:40:32;;;;;;;65.77;40.07;;;;;;;;;;5036923;28;20194;-66
2023/08/12 04:42:59;;;;;;;75.13;42.20;;;;;;;;;;5036965;28;20182;-66
2023/08/12 04:45:27;;;;;;;75.70;41.97;;;;;;;;;;5037000;28;20186;-67
2023/08/12 04:47:53;;;;;;;80.33;44.13;;;;;;;;;;5054795;28;20171;-66
2023/08/12 04:50:19;;;;;;;60.00;39.67;;;;;;;;;;5054761;28;20202;-66
2023/08/12 04:52:46;;;;;;;59.10;37.47;;;;;;;;;;5054597;28;20182;-66
2023/08/12 04:55:12;;;;;;;57.20;37.87;;;;;;;;;;5036515;28;20260;-66
2023/08/12 04:57:38;;;;;;;57.03;36.83;;;;;;;;;;5054749;28;20642;-65
2023/08/12 05:00:04;;;;;;;55.70;34.73;;;;;;;;;;5054590;28;20281;-66
2023/08/12 05:02:30;;;;;;;47.83;33.77;;;;;;;;;;5036410;28;20666;-65
2023/08/12 05:04:56;;;;;;;52.20;34.43;;;;;;;;;;5054646;28;20193;-66
2023/08/12 05:07:22;;;;;;;43.47;33.33;;;;;;;;;;5054054;28;20178;-66
2023/08/12 05:09:49;;;;;;;46.93;33.27;;;;;;;;;;5036561;28;20232;-66
2023/08/12 05:12:15;;;;;;;64.47;35.50;;;;;;;;;;5036309;28;20708;-65
2023/08/12 05:14:41;;;;;;;45.73;33.10;;;;;;;;;;5054042;28;20623;-66
2023/08/12 05:17:08;;;;;;;50.10;34.17;;;;;;;;;;5036177;28;20190;-66
2023/08/12 05:19:34;;;;;;;47.43;32.90;;;;;;;;;;5036827;28;20186;-66
2023/08/12 05:22:00;;;;;;;46.53;33.73;;;;;;;;;;5053926;28;20571;-66
2023/08/12 05:24:26;;;;;;;49.73;35.90;;;;;;;;;;5053871;28;20186;-65
2023/08/12 05:26:52;;;;;;;50.80;33.83;;;;;;;;;;5053752;28;20577;-65
2023/08/12 05:29:18;;;;;;;51.33;33.93;;;;;;;;;;5036203;28;20232;-65
2023/08/12 05:31:44;;;;;;;51.93;34.57;;;;;;;;;;5053695;28;20194;-64
2023/08/12 05:34:10;;;;;;;44.93;32.43;;;;;;;;;;5053823;28;20702;-65
2023/08/12 05:36:36;;;;;;;43.20;31.50;;;;;;;;;;5035791;28;20183;-65
2023/08/12 05:39:03;;;;;;;43.27;31.10;;;;;;;;;;5053729;28;20269;-65
2023/08/12 05:41:29;;;;;;;45.13;29.37;;;;;;;;;;5053587;28;20194;-64
2023/08/12 05:43:55;;;;;;;43.67;29.17;;;;;;;;;;5053792;28;20170;-65
2023/08/12 05:46:21;;;;;;;39.30;28.37;;;;;;;;;;5053688;28;20193;-64
2023/08/12 05:48:47;;;;;;;42.73;27.33;;;;;;;;;;5035500;28;20178;-64
2023/08/12 05:51:13;;;;;;;36.90;25.77;;;;;;;;;;5053487;28;20244;-64
2023/08/12 05:53:39;;;;;;;44.27;26.63;;;;;;;;;;5053648;28;20658;-64
2023/08/12 05:56:05;;;;;;;36.97;27.77;;;;;;;;;;5053721;28;20229;-64
2023/08/12 05:58:31;;;;;;;39.40;29.70;;;;;;;;;;5053380;28;20645;-65
2023/08/12 06:00:57;;;;;;;44.27;30.00;;;;;;;;;;5035322;28;20591;-65
2023/08/12 06:03:23;;;;;;;42.07;29.20;;;;;;;;;;5053147;28;20197;-64
2023/08/12 06:05:49;;;;;;;43.47;27.83;;;;;;;;;;5035316;28;20569;-65
2023/08/12 06:08:15;;;;;;;37.17;28.70;;;;;;;;;;5053276;28;20178;-65
2023/08/12 06:10:41;;;;;;;38.57;29.13;;;;;;;;;;5034893;28;20214;-65
2023/08/12 06:13:07;;;;;;;34.30;28.37;;;;;;;;;;5053190;28;20265;-65
2023/08/12 06:15:34;;;;;;;36.37;27.90;;;;;;;;;;5034919;28;20296;-65
2023/08/12 06:18:00;;;;;;;38.47;29.67;;;;;;;;;;5053205;28;20174;-65
2023/08/12 06:20:26;;;;;;;49.57;32.07;;;;;;;;;;5034450;28;20205;-64
2023/08/12 06:22:52;;;;;;;52.30;31.57;;;;;;;;;;5035027;28;20557;-65
2023/08/12 06:25:19;;;;;;;46.67;31.90;;;;;;;;;;5053264;28;20313;-65
2023/08/12 06:27:45;;;;;;;42.80;31.67;;;;;;;;;;5052870;28;20174;-65
2023/08/12 06:30:12;;;;;;;46.57;34.50;;;;;;;;;;5052985;28;20195;-65
2023/08/12 06:32:38;;;;;;;48.67;37.67;;;;;;;;;;5036227;28;20205;-65
2023/08/12 06:35:04;;;;;;;55.07;39.70;;;;;;;;;;5053905;28;20206;-65
2023/08/12 06:37:30;;;;;;;53.53;40.83;;;;;;;;;;5053437;28;20196;-65
2023/08/12 06:39:56;;;;;;;57.50;42.77;;;;;;;;;;5034754;28;20349;-66
2023/08/12 06:42:22;;;;;;;49.63;42.80;;;;;;;;;;5034877;28;20174;-65
2023/08/12 06:44:55;;;;;;;51.20;41.00;;;;;;;;;;5052711;28;20194;-66
2023/08/12 06:47:21;;;;;;;56.53;41.67;;;;;;;;;;5052660;28;20244;-65
2023/08/12 06:49:47;;;;;;;58.37;41.20;;;;;;;;;;5034692;28;20593;-67
2023/08/12 06:52:13;;;;;;;61.97;39.47;;;;;;;;;;5034696;28;20185;-66
2023/08/12 06:54:39;;;;;;;63.33;41.00;;;;;;;;;;5034408;28;20206;-65
2023/08/12 06:57:05;;;;;;;53.27;38.30;;;;;;;;;;5034729;28;20273;-65
2023/08/12 06:59:31;;;;;;;53.43;39.17;;;;;;;;;;5052405;28;20637;-65
2023/08/12 07:01:57;;;;;;;54.00;39.67;;;;;;;;;;5034399;28;20194;-65
2023/08/12 07:04:23;;;;;;;60.33;43.17;;;;;;;;;;5052726;28;20235;-65
2023/08/12 07:06:49;;;;;;;54.77;42.23;;;;;;;;;;5052840;28;20216;-65
2023/08/12 07:09:15;;;;;;;63.07;45.60;;;;;;;;;;5035175;28;20257;-66
2023/08/12 07:11:41;;;;;;;56.77;43.97;;;;;;;;;;5035669;28;20584;-65
2023/08/12 07:14:07;;;;;;;50.67;39.70;;;;;;;;;;5052851;28;20188;-65
2023/08/12 07:16:34;;;;;;;45.67;36.30;;;;;;;;;;5052802;28;20178;-67
2023/08/12 07:19:00;;;;;;;41.27;35.80;;;;;;;;;;5034679;28;20183;-65
2023/08/12 07:21:25;;;;;;;43.90;36.07;;;;;;;;;;5034481;28;20247;-65
2023/08/12 07:23:51;;;;;;;44.33;35.27;;;;;;;;;;5052545;28;20183;-65
2023/08/12 07:26:17;;;;;;;35.57;31.67;;;;;;;;;;5052271;28;20183;-65
2023/08/12 07:28:43;;;;;;;35.53;29.03;;;;;;;;;;5034387;28;20182;-65
2023/08/12 07:31:09;;;;;;;33.10;28.43;;;;;;;;;;5036153;28;20208;-65
2023/08/12 07:33:35;;;;;;;28.97;25.87;;;;;;;;;;5056090;28;20300;-65
2023/08/12 07:36:02;;;;;;;29.13;24.23;;;;;;;;;;5056216;28;20233;-65
2023/08/12 07:38:28;;;;;;;26.53;23.73;;;;;;;;;;5056027;28;20179;-65
2023/08/12 07:40:54;;;;;;;28.23;23.73;;;;;;;;;;5056000;28;20324;-66
2023/08/12 07:43:20;;;;;;;28.43;23.37;;;;;;;;;;5057424;28;20489;-65
2023/08/12 07:45:51;;;;;;;25.10;22.50;;;;;;;;;;5055938;28;20186;-65
2023/08/12 07:48:17;;;;;;;27.40;21.90;;;;;;;;;;5055935;28;20177;-65
2023/08/12 07:50:43;;;;;;;23.93;20.07;;;;;;;;;;5037951;28;20293;-65
2023/08/12 07:53:09;;;;;;;24.50;20.93;;;;;;;;;;5055701;28;20225;-66
2023/08/12 07:55:35;;;;;;;21.60;19.30;;;;;;;;;;5037696;28;20209;-67
2023/08/12 07:58:01;;;;;;;21.77;18.80;;;;;;;;;;5055929;28;20178;-64
2023/08/12 08:00:27;;;;;;;21.30;19.03;;;;;;;;;;5056212;28;20293;-66
2023/08/12 08:02:53;;;;;;;23.07;18.90;;;;;;;;;;5055746;28;20241;-66
2023/08/12 08:05:19;;;;;;;19.20;17.37;;;;;;;;;;5037727;28;20178;-65
2023/08/12 08:07:45;;;;;;;19.20;16.47;;;;;;;;;;5055731;28;20213;-65
2023/08/12 08:10:11;;;;;;;19.57;15.90;;;;;;;;;;5055631;28;20210;-67
2023/08/12 08:12:37;;;;;;;17.23;15.43;;;;;;;;;;5055851;28;20167;-66
2023/08/12 08:15:03;;;;;;;16.07;12.10;;;;;;;;;;5055666;28;20206;-68
2023/08/12 08:17:29;;;;;;;13.77;12.37;;;;;;;;;;5037624;28;20273;-65
2023/08/12 08:19:55;;;;;;;12.53;11.20;;;;;;;;;;5055916;28;20253;-69
2023/08/12 08:22:21;;;;;;;10.90;9.83;;;;;;;;;;5037823;28;20671;-68
2023/08/12 08:24:47;;;;;;;8.90;8.03;;;;;;;;;;5055868;28;20186;-67
2023/08/12 08:27:14;;;;;;;9.00;8.30;;;;;;;;;;5057043;28;20538;-68
2023/08/12 08:29:40;;;;;;;10.23;9.23;;;;;;;;;;5037517;28;20193;-67
2023/08/12 08:32:06;;;;;;;11.17;9.50;;;;;;;;;;5055265;28;20198;-65
2023/08/12 08:34:32;;;;;;;11.17;9.40;;;;;;;;;;5055488;28;20570;-66
2023/08/12 08:36:58;;;;;;;12.10;10.83;;;;;;;;;;5037118;28;20266;-67
2023/08/12 08:39:24;;;;;;;13.53;11.33;;;;;;;;;;5055191;28;20175;-68
2023/08/12 08:41:50;;;;;;;13.37;11.30;;;;;;;;;;5055386;28;20194;-68
2023/08/12 08:44:17;;;;;;;12.17;10.97;;;;;;;;;;5056488;28;20189;-66
2023/08/12 08:46:44;;;;;;;12.90;10.97;;;;;;;;;;5038680;28;20190;-66
2023/08/12 08:49:11;;;;;;;11.30;10.20;;;;;;;;;;5038412;28;20182;-65
2023/08/12 08:51:37;;;;;;;9.73;8.73;;;;;;;;;;5037954;28;20260;-65
2023/08/12 08:54:06;;;;;;;8.77;8.00;;;;;;;;;;5054638;28;20189;-65
2023/08/12 08:56:32;;;;;;;8.57;7.60;;;;;;;;;;5054934;28;20182;-66
2023/08/12 08:58:59;;;;;;;8.87;7.87;;;;;;;;;;5055186;28;20186;-65
2023/08/12 09:01:25;;;;;;;8.47;7.67;;;;;;;;;;5054660;28;20280;-68
2023/08/12 09:03:53;;;;;;;7.90;7.13;;;;;;;;;;5054864;28;20658;-66
2023/08/12 09:06:20;;;;;;;12.67;8.03;;;;;;;;;;5037036;28;20547;-65
2023/08/12 09:08:47;;;;;;;7.63;6.60;;;;;;;;;;5055328;28;20216;-66
2023/08/12 09:11:14;;;;;;;8.57;7.20;;;;;;;;;;5054526;28;20733;-64
2023/08/12 09:13:40;;;;;;;7.90;6.83;;;;;;;;;;5054622;28;20640;-64
2023/08/12 09:16:06;;;;;;;10.43;6.63;;;;;;;;;;5054409;28;20209;-64
2023/08/12 09:18:32;;;;;;;9.07;6.73;;;;;;;;;;5054989;28;20174;-64
2023/08/12 09:20:58;;;;;;;10.93;6.40;;;;;;;;;;5036685;28;20285;-64
2023/08/12 09:23:26;;;;;;;6.90;5.90;;;;;;;;;;5054890;28;20182;-64
2023/08/12 09:25:52;;;;;;;6.13;5.53;;;;;;;;;;5054734;28;20185;-65
2023/08/12 09:28:18;;;;;;;9.70;5.70;;;;;;;;;;5054223;28;20179;-65
2023/08/12 09:30:52;;;;;;;6.43;5.70;;;;;;;;;;5054185;28;20210;-65
2023/08/12 09:33:24;;;;;;;6.20;5.60;;;;;;;;;;5054182;28;20240;-65
2023/08/12 09:35:50;;;;;;;7.93;6.13;;;;;;;;;;5054150;28;20198;-65
2023/08/12 09:38:16;;;;;;;11.13;6.73;;;;;;;;;;5054547;28;20552;-65
2023/08/12 09:40:42;;;;;;;7.07;5.80;;;;;;;;;;5053802;28;20274;-66
2023/08/12 09:43:08;;;;;;;11.13;5.93;;;;;;;;;;5054041;28;20182;-66
2023/08/12 09:45:35;;;;;;;6.20;5.70;;;;;;;;;;5035819;28;20182;-65
2023/08/12 09:48:01;;;;;;;6.27;5.60;;;;;;;;;;5053774;28;20183;-66
2023/08/12 09:50:28;;;;;;;5.63;5.13;;;;;;;;;;5053527;28;20218;-65
2023/08/12 09:52:55;;;;;;;5.80;5.20;;;;;;;;;;5035619;28;20200;-66
2023/08/12 09:55:22;;;;;;;5.53;4.93;;;;;;;;;;5052645;28;20648;-65
2023/08/12 09:57:55;;;;;;;5.00;4.60;;;;;;;;;;5053758;28;20589;-65
2023/08/12 10:00:22;;;;;;;8.70;4.47;;;;;;;;;;5053330;28;20233;-65
2023/08/12 10:02:49;;;;;;;6.93;4.40;;;;;;;;;;5035624;28;20189;-65
2023/08/12 10:05:35;;;;;;;4.63;4.23;;;;;;;;;;5053650;28;20181;-65
2023/08/12 10:08:03;;;;;;;6.67;3.73;;;;;;;;;;5053887;28;20213;-66
2023/08/12 10:10:31;;;;;;;3.53;3.23;;;;;;;;;;5053390;28;20344;-65
2023/08/12 10:12:58;;;;;;;3.57;3.27;;;;;;;;;;5036135;28;20174;-65
2023/08/12 10:15:24;;;;;;;3.30;3.07;;;;;;;;;;5054114;28;20690;-66
2023/08/12 10:17:52;;;;;;;3.20;2.90;;;;;;;;;;5053587;28;20174;-65
2023/08/12 10:20:22;;;;;;;2.80;2.60;;;;;;;;;;5053959;28;20649;-65
2023/08/12 10:22:48;;;;;;;2.80;2.60;;;;;;;;;;5054019;28;20189;-65
2023/08/12 10:25:15;;;;;;;2.83;2.63;;;;;;;;;;5054832;28;20178;-65
2023/08/12 10:27:41;;;;;;;2.70;2.50;;;;;;;;;;5036677;28;20232;-65
2023/08/12 10:30:07;;;;;;;2.83;2.50;;;;;;;;;;5055548;28;20297;-65
2023/08/12 10:32:34;;;;;;;2.67;2.47;;;;;;;;;;5055121;28;20197;-67
2023/08/12 10:35:00;;;;;;;3.00;2.60;;;;;;;;;;5037825;28;20207;-68
2023/08/12 10:37:26;;;;;;;3.23;2.93;;;;;;;;;;5060426;28;20199;-66
2023/08/12 10:39:53;;;;;;;3.63;2.67;;;;;;;;;;5045544;28;20186;-65
2023/08/12 10:42:38;;;;;;;5.27;2.80;;;;;;;;;;5060756;28;20539;-65
2023/08/12 10:45:08;;;;;;;2.40;2.20;;;;;;;;;;5055842;28;20182;-66
2023/08/12 10:47:34;;;;;;;10.13;2.93;;;;;;;;;;5039633;28;20701;-66
2023/08/12 10:50:01;;;;;;;3.13;2.40;;;;;;;;;;5062973;28;20636;-66
2023/08/12 10:52:28;;;;;;;3.80;2.23;;;;;;;;;;5045938;28;20240;-67
2023/08/12 10:54:54;;;;;;;3.47;2.40;;;;;;;;;;5044510;28;20206;-67
2023/08/12 10:57:37;;;;;;;3.50;2.20;;;;;;;;;;5065562;28;20650;-66
2023/08/12 11:00:04;;;;;;;2.63;2.00;;;;;;;;;;5064886;28;20158;-66
2023/08/12 11:02:34;;;;;;;2.23;2.03;;;;;;;;;;5062465;28;20178;-67
2023/08/12 11:05:04;;;;;;;3.13;1.90;;;;;;;;;;5065798;28;20186;-64
2023/08/12 11:07:44;;;;;;;1.83;1.73;;;;;;;;;;5072802;28;20179;-64
2023/08/12 11:10:09;;;;;;;4.47;2.00;;;;;;;;;;5049498;28;20579;-65
2023/08/12 11:12:36;;;;;;;2.17;1.87;;;;;;;;;;5046006;28;20173;-64
2023/08/12 11:15:04;;;;;;;2.00;1.90;;;;;;;;;;5060319;28;20201;-64
2023/08/12 11:17:35;;;;;;;4.23;1.90;;;;;;;;;;5058251;28;20177;-65
2023/08/12 11:20:04;;;;;;;2.37;1.87;;;;;;;;;;5056886;28;20683;-66
2023/08/12 11:22:30;;;;;;;2.40;2.10;;;;;;;;;;5038964;28;20705;-65
2023/08/12 11:24:56;;;;;;;2.10;1.90;;;;;;;;;;5038770;28;20624;-66
2023/08/12 11:27:23;;;;;;;5.13;2.20;;;;;;;;;;5038610;28;20187;-66
2023/08/12 11:29:51;;;;;;;2.50;2.30;;;;;;;;;;5056648;28;20174;-66
2023/08/12 11:32:18;;;;;;;3.83;2.70;;;;;;;;;;5056707;28;20183;-68
2023/08/12 11:34:44;;;;;;;2.87;2.67;;;;;;;;;;5038779;28;20735;-68
2023/08/12 11:37:10;;;;;;;3.47;3.23;;;;;;;;;;5057267;28;20178;-67
2023/08/12 11:39:37;;;;;;;6.13;3.80;;;;;;;;;;5056357;28;20680;-65
2023/08/12 11:42:03;;;;;;;3.67;3.37;;;;;;;;;;5038031;28;20199;-65
2023/08/12 11:44:29;;;;;;;3.83;3.53;;;;;;;;;;5038478;28;20190;-65
2023/08/12 11:46:55;;;;;;;4.37;4.00;;;;;;;;;;5038178;28;20710;-65
2023/08/12 11:49:21;;;;;;;4.73;4.43;;;;;;;;;;5056069;28;20206;-65
2023/08/12 11:51:48;;;;;;;5.37;4.87;;;;;;;;;;5038161;28;20621;-64
2023/08/12 11:54:14;;;;;;;6.27;5.77;;;;;;;;;;5037939;28;20185;-65
2023/08/12 11:56:41;;;;;;;6.60;5.97;;;;;;;;;;5056572;28;20174;-64
2023/08/12 11:59:07;;;;;;;10.33;5.90;;;;;;;;;;5055752;28;20182;-64
2023/08/12 12:01:34;;;;;;;6.87;6.27;;;;;;;;;;5055897;28;20190;-68
2023/08/12 12:04:03;;;;;;;7.67;7.07;;;;;;;;;;5037887;28;20182;-64
2023/08/12 12:06:32;;;;;;;7.70;7.10;;;;;;;;;;5037893;28;20182;-64
2023/08/12 12:09:05;;;;;;;8.10;7.40;;;;;;;;;;5037825;28;20228;-64
2023/08/12 12:11:31;;;;;;;8.20;7.57;;;;;;;;;;5055555;28;20706;-64
2023/08/12 12:13:57;;;;;;;9.07;8.33;;;;;;;;;;5055686;28;20232;-66
2023/08/12 12:16:23;;;;;;;9.53;8.83;;;;;;;;;;5055405;28;20206;-65
2023/08/12 12:18:49;;;;;;;10.07;9.20;;;;;;;;;;5054468;28;20203;-65
2023/08/12 12:21:21;;;;;;;10.53;9.50;;;;;;;;;;5055577;28;20190;-65
2023/08/12 12:23:47;;;;;;;10.43;9.53;;;;;;;;;;5055857;28;20204;-65
2023/08/12 12:26:13;;;;;;;9.27;8.57;;;;;;;;;;5055505;28;20593;-65
2023/08/12 12:28:39;;;;;;;9.40;8.60;;;;;;;;;;5037250;28;20182;-64
2023/08/12 12:31:07;;;;;;;9.70;8.80;;;;;;;;;;5037217;28;20252;-64
2023/08/12 12:33:33;;;;;;;9.83;9.00;;;;;;;;;;5037176;28;20179;-65
2023/08/12 12:35:59;;;;;;;9.03;8.33;;;;;;;;;;5037266;28;20214;-64
2023/08/12 12:38:25;;;;;;;9.97;9.00;;;;;;;;;;5055107;28;20266;-65
2023/08/12 12:40:51;;;;;;;9.93;9.03;;;;;;;;;;5036888;28;20610;-65
2023/08/12 12:43:17;;;;;;;10.70;9.80;;;;;;;;;;5055150;28;20179;-64
2023/08/12 12:45:43;;;;;;;10.40;9.50;;;;;;;;;;5036889;28;20182;-64
2023/08/12 12:48:09;;;;;;;11.30;10.30;;;;;;;;;;5037218;28;20182;-64
2023/08/12 12:50:35;;;;;;;10.87;9.93;;;;;;;;;;5054818;28;20273;-64
2023/08/12 12:53:01;;;;;;;11.93;10.73;;;;;;;;;;5036927;28;20186;-64
2023/08/12 12:55:27;;;;;;;12.40;11.27;;;;;;;;;;5054832;28;20683;-64
2023/08/12 12:57:53;;;;;;;12.03;10.83;;;;;;;;;;5055302;28;20628;-64
2023/08/12 13:00:19;;;;;;;14.90;11.53;;;;;;;;;;5036747;28;20198;-64
2023/08/12 13:02:45;;;;;;;13.50;12.40;;;;;;;;;;5054707;28;20174;-64
2023/08/12 13:05:11;;;;;;;13.57;12.43;;;;;;;;;;5037373;28;20218;-64
2023/08/12 13:07:37;;;;;;;15.60;13.70;;;;;;;;;;5054572;28;20178;-64
2023/08/12 13:10:03;;;;;;;14.20;12.70;;;;;;;;;;5054713;28;20269;-64
2023/08/12 13:12:28;;;;;;;15.10;13.83;;;;;;;;;;5054968;28;20171;-64
2023/08/12 13:14:54;;;;;;;15.83;14.27;;;;;;;;;;5054358;28;20210;-65
2023/08/12 13:17:20;;;;;;;13.80;12.50;;;;;;;;;;5054427;28;20249;-66
2023/08/12 13:19:46;;;;;;;13.33;12.03;;;;;;;;;;5036317;28;20214;-65
2023/08/12 13:22:12;;;;;;;12.43;11.33;;;;;;;;;;5054188;28;20175;-65
2023/08/12 13:24:38;;;;;;;12.03;10.93;;;;;;;;;;5074208;22;20226;-71
2023/08/12 13:27:04;;;;;;;12.40;11.27;;;;;;;;;;5016576;28;20160;-71
2023/08/12 13:29:31;;;;;;;12.37;11.37;;;;;;;;;;5016457;28;20179;-70
2023/08/12 13:31:57;;;;;;;13.43;12.33;;;;;;;;;;5034496;28;20175;-71
2023/08/12 13:34:23;;;;;;;13.23;11.93;;;;;;;;;;5034294;28;20252;-70
2023/08/12 13:36:49;;;;;;;14.30;11.90;;;;;;;;;;5017450;28;20194;-69
2023/08/12 13:39:15;;;;;;;13.13;11.83;;;;;;;;;;5037387;28;20171;-68
2023/08/12 13:41:43;;;;;;;11.37;10.13;;;;;;;;;;5036105;28;20182;-68
2023/08/12 13:44:09;;;;;;;10.07;9.23;;;;;;;;;;5018313;28;20178;-68
2023/08/12 13:46:35;;;;;;;8.00;7.40;;;;;;;;;;5018544;28;20179;-70
2023/08/12 13:49:01;;;;;;;7.90;7.30;;;;;;;;;;5034017;28;20176;-69
2023/08/12 13:51:27;;;;;;;7.53;6.90;;;;;;;;;;5033893;28;20213;-69
2023/08/12 13:53:53;;;;;;;7.30;5.97;;;;;;;;;;5016059;28;20266;-69
2023/08/12 13:56:20;;;;;;;5.77;5.37;;;;;;;;;;5033636;28;20306;-71
2023/08/12 13:58:46;;;;;;;6.93;6.20;;;;;;;;;;5016262;28;20191;-69
2023/08/12 14:01:12;;;;;;;6.57;5.87;;;;;;;;;;5016284;28;20175;-69
2023/08/12 14:03:38;;;;;;;6.73;5.90;;;;;;;;;;5033672;28;20182;-69
2023/08/12 14:06:04;;;;;;;5.43;5.03;;;;;;;;;;5033527;28;20220;-69
2023/08/12 14:08:30;;;;;;;5.20;4.70;;;;;;;;;;5033700;28;20182;-69
2023/08/12 14:10:56;;;;;;;5.60;5.10;;;;;;;;;;5015768;28;20170;-69
2023/08/12 14:13:22;;;;;;;5.30;4.63;;;;;;;;;;5014669;28;20391;-69
2023/08/12 14:15:48;;;;;;;5.90;4.77;;;;;;;;;;5033335;28;20218;-69
2023/08/12 14:18:14;;;;;;;5.90;3.87;;;;;;;;;;5033651;28;20175;-68
2023/08/12 14:20:40;;;;;;;5.90;3.90;;;;;;;;;;5033702;28;20202;-69
2023/08/12 14:23:08;;;;;;;4.40;4.00;;;;;;;;;;5014377;28;20407;-68